Time;durP1;ratioP1;P1;durP2;ratioP2;P2;SDS_P1;SDS_P2;PMS_P1;PMS_P2;Temp;Humidity;BMP_temperature;BMP_pressure;BME280_temperature;BME280_humidity;BME280_pressure;Samples;Min_cycle;Max_cycle;Signal;HPM_P1;HPM_P2
2021/09/29 00:02:04;;;;;;;8.73;3.78;;;13.80;89.30;;;;;;5013271;28;20041;-75
2021/09/29 00:04:30;;;;;;;7.70;3.15;;;13.80;89.40;;;;;;5013575;28;20352;-75
2021/09/29 00:06:55;;;;;;;10.07;3.38;;;13.80;89.50;;;;;;5011460;28;20061;-75
2021/09/29 00:09:21;;;;;;;15.00;3.53;;;13.80;90.10;;;;;;5013124;28;20022;-74
2021/09/29 00:11:47;;;;;;;11.93;3.20;;;13.80;89.80;;;;;;5012786;28;20181;-75
2021/09/29 00:14:13;;;;;;;7.65;3.10;;;13.80;89.80;;;;;;5013001;28;20463;-75
2021/09/29 00:16:38;;;;;;;7.65;2.63;;;13.80;89.90;;;;;;5011366;28;20421;-74
2021/09/29 00:19:04;;;;;;;8.40;3.40;;;13.80;89.80;;;;;;5012988;28;20057;-75
2021/09/29 00:21:29;;;;;;;13.60;3.80;;;13.80;89.80;;;;;;5013072;28;20033;-75
2021/09/29 00:23:55;;;;;;;10.35;5.03;;;13.80;89.70;;;;;;5012748;28;20068;-75
2021/09/29 00:26:21;;;;;;;10.20;3.60;;;13.70;89.40;;;;;;5013000;28;20489;-75
2021/09/29 00:28:46;;;;;;;13.32;4.53;;;13.80;89.30;;;;;;5011765;28;20057;-74
2021/09/29 00:34:24;;;;;;;10.65;4.28;;;13.80;89.20;;;;;;5016363;28;20068;-74
2021/09/29 00:36:45;;;;;;;11.40;4.10;;;13.80;89.10;;;;;;5019299;28;20025;-74
2021/09/29 00:39:12;;;;;;;12.23;4.15;;;13.80;88.90;;;;;;5019249;28;20029;-74
2021/09/29 00:41:39;;;;;;;12.27;4.50;;;13.80;89.00;;;;;;5019476;28;20509;-74
2021/09/29 00:44:05;;;;;;;14.07;4.43;;;13.80;89.10;;;;;;5019469;28;20150;-73
2021/09/29 00:46:31;;;;;;;10.70;4.25;;;13.80;89.00;;;;;;5019386;28;20065;-73
2021/09/29 00:48:57;;;;;;;9.63;4.00;;;13.80;88.80;;;;;;5026397;28;20041;-74
2021/09/29 00:51:23;;;;;;;9.68;3.50;;;13.80;89.00;;;;;;5025217;28;20026;-74
2021/09/29 00:53:51;;;;;;;11.35;3.72;;;13.80;89.60;;;;;;5017423;28;20026;-75
2021/09/29 00:56:17;;;;;;;9.57;2.97;;;13.80;89.20;;;;;;5017855;28;20520;-74
2021/09/29 00:58:42;;;;;;;9.65;4.13;;;13.80;89.50;;;;;;5017339;28;20030;-74
2021/09/29 01:01:08;;;;;;;11.73;4.28;;;13.80;89.10;;;;;;5018337;28;20029;-74
2021/09/29 01:03:34;;;;;;;9.18;3.58;;;13.80;89.40;;;;;;5018160;28;20063;-75
2021/09/29 01:06:07;;;;;;;12.20;6.03;;;13.90;89.40;;;;;;5017617;28;20030;-74
2021/09/29 01:08:39;;;;;;;11.25;3.88;;;13.90;89.00;;;;;;5018830;28;20055;-75
2021/09/29 01:11:26;;;;;;;10.98;4.40;;;13.90;89.00;;;;;;5017574;28;20029;-74
2021/09/29 01:14:02;;;;;;;10.45;4.40;;;13.90;89.30;;;;;;5017630;28;20489;-73
2021/09/29 01:16:32;;;;;;;9.23;3.95;;;13.90;89.90;;;;;;5020408;28;20041;-75
2021/09/29 01:18:58;;;;;;;12.00;4.25;;;13.90;89.30;;;;;;5022604;28;20087;-74
2021/09/29 01:21:28;;;;;;;9.90;3.30;;;14.00;89.40;;;;;;5023508;28;20049;-74
2021/09/29 01:24:01;;;;;;;10.95;4.63;;;14.00;89.30;;;;;;5023341;28;20482;-75
2021/09/29 01:26:30;;;;;;;13.00;4.40;;;14.00;88.70;;;;;;5017885;28;20033;-75
2021/09/29 01:28:57;;;;;;;14.52;5.15;;;13.90;88.80;;;;;;5017341;28;20018;-75
2021/09/29 01:31:25;;;;;;;9.82;4.32;;;13.90;88.50;;;;;;5018752;28;20108;-74
2021/09/29 01:33:53;;;;;;;10.07;4.22;;;13.90;89.60;;;;;;5018716;28;20112;-75
2021/09/29 01:36:19;;;;;;;12.55;5.75;;;13.80;88.50;;;;;;5019001;28;20026;-75
2021/09/29 01:38:54;;;;;;;7.95;3.13;;;13.80;89.00;;;;;;5018739;28;20030;-75
2021/09/29 01:41:20;;;;;;;14.52;6.32;;;13.80;89.40;;;;;;5017838;28;20060;-75
2021/09/29 01:43:45;;;;;;;9.40;4.20;;;13.80;88.50;;;;;;5018800;28;20057;-74
2021/09/29 01:46:12;;;;;;;14.63;5.63;;;13.80;88.90;;;;;;5015182;28;20088;-75
2021/09/29 01:48:52;;;;;;;11.82;5.38;;;13.80;89.00;;;;;;5014331;28;20021;-74
2021/09/29 01:51:19;;;;;;;12.63;5.20;;;13.80;89.40;;;;;;5015487;28;20033;-74
2021/09/29 01:53:46;;;;;;;11.85;5.13;;;13.80;89.00;;;;;;5015314;28;20054;-74
2021/09/29 01:56:12;;;;;;;8.85;3.25;;;13.80;89.10;;;;;;5014104;28;20025;-74
2021/09/29 01:58:37;;;;;;;11.02;5.18;;;13.70;89.20;;;;;;5015452;28;20100;-74
2021/09/29 02:01:03;;;;;;;8.15;5.00;;;13.70;90.20;;;;;;5014880;28;20072;-74
2021/09/29 02:03:29;;;;;;;16.38;6.50;;;13.70;89.70;;;;;;5015251;28;20078;-75
2021/09/29 02:05:54;;;;;;;11.80;4.03;;;13.70;89.80;;;;;;5015278;28;20037;-74
2021/09/29 02:08:20;;;;;;;12.68;5.70;;;13.60;90.10;;;;;;5013871;28;20030;-74
2021/09/29 02:10:46;;;;;;;14.18;5.85;;;13.60;89.90;;;;;;5014745;28;20026;-75
2021/09/29 02:13:11;;;;;;;10.35;5.43;;;13.60;89.50;;;;;;5013765;28;20026;-74
2021/09/29 02:15:37;;;;;;;10.20;4.20;;;13.60;89.60;;;;;;5014848;28;20101;-74
2021/09/29 02:18:03;;;;;;;12.80;5.45;;;13.50;89.80;;;;;;5014806;28;20112;-74
2021/09/29 02:20:29;;;;;;;12.48;5.53;;;13.50;89.70;;;;;;5013989;28;20022;-74
2021/09/29 02:22:54;;;;;;;11.93;5.10;;;13.50;90.00;;;;;;5015569;28;20053;-74
2021/09/29 02:25:20;;;;;;;9.90;4.28;;;13.50;90.10;;;;;;5015920;28;20029;-73
2021/09/29 02:27:46;;;;;;;10.13;3.38;;;13.50;90.00;;;;;;5014966;28;20390;-74
2021/09/29 02:30:12;;;;;;;12.68;5.43;;;13.40;90.20;;;;;;5013576;28;20030;-74
2021/09/29 02:32:39;;;;;;;11.85;5.35;;;13.40;90.30;;;;;;5014615;28;20030;-74
2021/09/29 02:35:06;;;;;;;11.10;4.05;;;13.40;90.10;;;;;;5014635;28;20535;-75
2021/09/29 02:37:32;;;;;;;13.13;5.35;;;13.40;90.10;;;;;;5014896;28;20014;-75
2021/09/29 02:39:57;;;;;;;9.73;5.25;;;13.30;90.00;;;;;;5014307;28;20481;-75
2021/09/29 02:42:23;;;;;;;14.98;4.88;;;13.30;90.00;;;;;;5014318;28;20030;-75
2021/09/29 02:44:48;;;;;;;9.43;4.20;;;13.30;90.00;;;;;;5014277;28;20481;-74
2021/09/29 02:47:14;;;;;;;12.52;6.35;;;13.30;90.30;;;;;;5014570;28;20032;-75
2021/09/29 02:49:40;;;;;;;11.65;6.03;;;13.30;90.00;;;;;;5014386;28;20061;-74
2021/09/29 02:52:05;;;;;;;8.80;4.22;;;13.20;90.10;;;;;;5014893;28;20033;-74
2021/09/29 02:54:31;;;;;;;8.50;4.03;;;13.30;90.50;;;;;;5023406;28;20026;-74
2021/09/29 02:56:56;;;;;;;12.52;5.47;;;13.20;90.60;;;;;;5012012;28;20108;-75
2021/09/29 02:59:22;;;;;;;11.98;6.35;;;13.20;90.50;;;;;;5013905;28;20113;-74
2021/09/29 03:01:47;;;;;;;17.48;7.72;;;13.20;90.30;;;;;;5014127;28;20072;-74
2021/09/29 03:04:13;;;;;;;10.35;5.65;;;13.20;90.20;;;;;;5014384;28;20044;-74
2021/09/29 03:06:39;;;;;;;11.82;4.85;;;13.20;90.20;;;;;;5014251;28;20072;-75
2021/09/29 03:09:06;;;;;;;17.92;6.15;;;13.20;90.30;;;;;;5013435;28;20439;-75
2021/09/29 03:11:32;;;;;;;12.00;6.07;;;13.20;90.20;;;;;;5016814;28;20068;-74
2021/09/29 03:13:58;;;;;;;9.75;4.90;;;13.20;90.20;;;;;;5015125;28;20034;-74
2021/09/29 03:16:23;;;;;;;16.35;6.93;;;13.10;90.20;;;;;;5026349;28;20026;-75
2021/09/29 03:18:49;;;;;;;10.10;4.97;;;13.20;90.20;;;;;;5014542;28;20026;-75
2021/09/29 03:21:15;;;;;;;12.13;4.80;;;13.20;90.30;;;;;;5014261;28;20029;-74
2021/09/29 03:23:41;;;;;;;13.18;6.53;;;13.20;90.30;;;;;;5014726;28;20033;-74
2021/09/29 03:26:07;;;;;;;11.35;5.47;;;13.10;90.30;;;;;;5013607;28;20022;-75
2021/09/29 03:28:33;;;;;;;9.15;4.63;;;13.10;90.20;;;;;;5012491;28;20113;-74
2021/09/29 03:30:58;;;;;;;15.18;5.40;;;13.10;90.20;;;;;;5013185;28;20474;-75
2021/09/29 03:33:24;;;;;;;10.63;4.70;;;13.10;90.20;;;;;;5012479;28;20044;-75
2021/09/29 03:35:50;;;;;;;11.10;6.03;;;13.10;90.50;;;;;;5012199;28;20063;-74
2021/09/29 03:38:15;;;;;;;11.40;5.65;;;13.10;90.30;;;;;;5013630;28;20378;-74
2021/09/29 03:40:41;;;;;;;12.70;5.45;;;13.10;90.40;;;;;;5013793;28;20034;-75
2021/09/29 03:43:06;;;;;;;10.02;5.47;;;13.10;90.30;;;;;;5011908;28;20112;-75
2021/09/29 03:45:32;;;;;;;12.20;5.07;;;13.10;90.40;;;;;;5012187;28;20026;-74
2021/09/29 03:47:58;;;;;;;11.35;6.05;;;13.10;90.30;;;;;;5013228;28;20037;-75
2021/09/29 03:50:23;;;;;;;9.65;4.43;;;13.10;90.20;;;;;;5013056;28;20429;-74
2021/09/29 03:52:49;;;;;;;9.43;5.65;;;13.10;90.20;;;;;;5012875;28;20034;-76
2021/09/29 03:55:15;;;;;;;10.68;5.70;;;13.10;90.20;;;;;;5012195;28;20395;-75
2021/09/29 03:57:41;;;;;;;10.63;4.90;;;13.20;90.20;;;;;;5013144;28;20034;-75
2021/09/29 04:00:09;;;;;;;13.48;6.00;;;13.10;90.20;;;;;;5013403;28;20079;-75
2021/09/29 04:02:36;;;;;;;13.25;5.88;;;13.10;90.20;;;;;;5013375;28;20030;-75
2021/09/29 04:05:01;;;;;;;10.93;5.68;;;13.10;90.20;;;;;;5011861;28;20176;-75
2021/09/29 04:07:27;;;;;;;10.98;5.40;;;13.10;90.50;;;;;;5014032;28;20072;-75
2021/09/29 04:09:52;;;;;;;10.77;5.30;;;13.20;90.60;;;;;;5014891;28;20018;-75
2021/09/29 04:12:21;;;;;;;11.32;5.28;;;13.20;90.30;;;;;;5015377;28;20068;-74
2021/09/29 04:14:46;;;;;;;10.63;5.68;;;13.20;90.40;;;;;;5014559;28;20033;-73
2021/09/29 04:17:12;;;;;;;12.20;4.38;;;13.20;90.20;;;;;;5013741;28;20022;-74
2021/09/29 04:19:38;;;;;;;10.07;4.15;;;13.20;90.40;;;;;;5012930;28;20029;-75
2021/09/29 04:22:03;;;;;;;9.15;4.00;;;13.20;90.60;;;;;;5012910;28;20034;-75
2021/09/29 04:24:29;;;;;;;8.70;4.60;;;13.20;90.40;;;;;;5011585;28;20076;-75
2021/09/29 04:26:55;;;;;;;11.40;4.57;;;13.30;90.40;;;;;;5012809;28;20022;-75
2021/09/29 04:29:20;;;;;;;10.07;5.00;;;13.30;90.40;;;;;;5012814;28;20034;-75
2021/09/29 04:31:46;;;;;;;9.90;5.35;;;13.30;90.30;;;;;;5012945;28;20029;-75
2021/09/29 04:34:12;;;;;;;13.23;5.97;;;13.30;90.20;;;;;;5011282;28;20470;-74
2021/09/29 04:36:37;;;;;;;10.95;4.30;;;13.30;90.10;;;;;;5011480;28;20026;-74
2021/09/29 04:39:03;;;;;;;12.52;6.57;;;13.30;90.30;;;;;;5011094;28;20022;-73
2021/09/29 04:41:29;;;;;;;12.00;6.13;;;13.30;90.10;;;;;;5012692;28;20481;-74
2021/09/29 04:43:55;;;;;;;12.70;5.60;;;13.30;90.10;;;;;;5012767;28;20061;-73
2021/09/29 04:46:20;;;;;;;10.50;5.40;;;13.20;90.10;;;;;;5012330;28;20374;-74
2021/09/29 04:48:46;;;;;;;7.88;4.22;;;13.20;90.20;;;;;;5012513;28;20467;-74
2021/09/29 04:51:12;;;;;;;14.07;6.55;;;13.30;90.30;;;;;;5012131;28;20030;-72
2021/09/29 04:53:38;;;;;;;9.20;4.25;;;13.30;90.20;;;;;;5012283;28;20364;-74
2021/09/29 04:56:04;;;;;;;10.90;5.18;;;13.30;90.50;;;;;;5012410;28;20088;-73
2021/09/29 04:58:29;;;;;;;8.55;3.00;;;13.30;90.40;;;;;;5013851;28;20474;-73
2021/09/29 05:00:55;;;;;;;10.90;5.63;;;13.30;90.60;;;;;;5013731;28;20459;-73
2021/09/29 05:03:22;;;;;;;10.98;4.88;;;13.40;90.50;;;;;;5016457;28;20113;-73
2021/09/29 05:05:48;;;;;;;11.65;4.80;;;13.30;90.50;;;;;;5012944;28;20057;-74
2021/09/29 05:08:23;;;;;;;13.45;5.93;;;13.30;90.60;;;;;;5016443;28;20022;-74
2021/09/29 05:11:04;;;;;;;12.43;4.97;;;13.30;90.50;;;;;;5012284;28;20033;-73
2021/09/29 05:13:32;;;;;;;13.63;6.20;;;13.30;90.50;;;;;;5012485;28;20029;-74
2021/09/29 05:15:59;;;;;;;11.95;5.05;;;13.40;90.30;;;;;;5010535;28;20113;-74
2021/09/29 05:18:25;;;;;;;10.30;5.40;;;13.40;90.70;;;;;;5011224;28;20022;-74
2021/09/29 05:20:51;;;;;;;7.95;3.85;;;13.40;90.20;;;;;;5014466;28;20034;-72
2021/09/29 05:23:16;;;;;;;14.73;5.43;;;13.40;90.60;;;;;;5017103;28;20026;-73
2021/09/29 05:25:42;;;;;;;7.65;4.32;;;13.40;90.40;;;;;;5015146;28;20053;-73
2021/09/29 05:28:11;;;;;;;9.77;5.43;;;13.40;90.60;;;;;;5015936;28;20422;-73
2021/09/29 05:30:37;;;;;;;11.63;5.68;;;13.40;90.40;;;;;;5015817;28;20030;-73
2021/09/29 05:33:03;;;;;;;8.00;4.15;;;13.50;90.60;;;;;;5016282;28;20033;-73
2021/09/29 05:35:28;;;;;;;11.25;4.22;;;13.40;90.70;;;;;;5014706;28;20025;-73
2021/09/29 05:37:54;;;;;;;11.27;4.95;;;13.40;90.80;;;;;;5015932;28;20478;-73
2021/09/29 05:40:20;;;;;;;12.07;5.20;;;13.50;91.10;;;;;;5015365;28;20113;-74
2021/09/29 05:42:46;;;;;;;12.13;6.57;;;13.40;90.90;;;;;;5014512;28;20103;-74
2021/09/29 05:45:11;;;;;;;14.90;5.38;;;13.40;91.00;;;;;;5016903;28;20053;-73
2021/09/29 05:47:37;;;;;;;16.27;5.78;;;13.30;91.10;;;;;;5022456;28;20026;-73
2021/09/29 05:50:05;;;;;;;11.05;4.60;;;13.30;91.20;;;;;;5024972;28;20083;-74
2021/09/29 05:52:30;;;;;;;7.72;4.15;;;13.30;91.40;;;;;;5021386;28;20113;-75
2021/09/29 05:54:56;;;;;;;10.32;4.80;;;13.30;91.50;;;;;;5014219;28;20073;-74
2021/09/29 05:57:22;;;;;;;14.05;5.28;;;13.30;91.50;;;;;;5015134;28;20360;-74
2021/09/29 05:59:48;;;;;;;10.75;5.10;;;13.40;91.50;;;;;;5013529;28;20038;-75
2021/09/29 06:02:14;;;;;;;10.15;5.93;;;13.40;91.50;;;;;;5014245;28;20164;-74
2021/09/29 06:04:41;;;;;;;11.57;6.05;;;13.40;91.50;;;;;;5016488;28;20113;-73
2021/09/29 06:07:11;;;;;;;13.02;4.22;;;13.30;91.60;;;;;;5034428;28;20057;-75
2021/09/29 06:09:40;;;;;;;;;;;13.40;91.70;;;;;;5035281;28;20472;-75
2021/09/29 06:12:07;;;;;;;10.02;6.05;;;13.30;91.90;;;;;;5034489;28;20011;-75
2021/09/29 06:14:33;;;;;;;11.93;5.90;;;13.30;92.20;;;;;;5034367;28;20064;-74
2021/09/29 06:17:12;;;;;;;12.68;5.43;;;13.30;92.20;;;;;;5033226;28;20025;-74
2021/09/29 06:19:38;;;;;;;14.27;5.03;;;13.30;92.30;;;;;;5034547;28;20022;-75
2021/09/29 06:22:06;;;;;;;14.52;5.25;;;13.20;92.30;;;;;;5032836;28;20029;-74
2021/09/29 06:24:32;;;;;;;10.38;4.43;;;13.30;92.40;;;;;;5034335;28;20028;-74
2021/09/29 06:26:57;;;;;;;14.20;5.72;;;13.20;92.10;;;;;;5034295;28;20022;-74
2021/09/29 06:29:23;;;;;;;15.10;10.13;;;13.30;92.50;;;;;;5034239;28;20104;-73
2021/09/29 06:31:56;;;;;;;12.88;5.80;;;13.30;92.90;;;;;;5034118;28;20089;-73
2021/09/29 06:34:23;;;;;;;13.82;6.65;;;13.20;92.90;;;;;;5034282;28;20385;-73
2021/09/29 06:36:49;;;;;;;10.20;4.47;;;13.20;93.10;;;;;;5034597;28;20029;-74
2021/09/29 06:39:14;;;;;;;13.40;6.03;;;13.20;93.10;;;;;;5034277;28;20071;-74
2021/09/29 06:41:44;;;;;;;24.63;6.30;;;13.20;93.30;;;;;;5034210;28;20030;-73
2021/09/29 06:44:11;;;;;;;12.07;6.40;;;13.20;93.40;;;;;;5033735;28;20501;-74
2021/09/29 06:46:37;;;;;;;11.27;5.63;;;13.20;93.50;;;;;;5034618;28;20084;-73
2021/09/29 06:49:06;;;;;;;18.70;6.57;;;13.10;93.60;;;;;;5034276;28;20028;-75
2021/09/29 06:51:33;;;;;;;8.88;4.60;;;13.20;93.50;;;;;;5033546;28;20030;-76
2021/09/29 06:53:59;;;;;;;11.20;4.57;;;13.20;93.40;;;;;;5037454;28;20033;-74
2021/09/29 06:56:25;;;;;;;12.65;5.10;;;13.20;93.50;;;;;;5039353;28;20028;-74
2021/09/29 06:58:53;;;;;;;12.65;6.10;;;13.20;93.50;;;;;;5038817;28;20041;-73
2021/09/29 07:01:20;;;;;;;16.13;6.43;;;13.20;93.70;;;;;;5037839;28;20485;-74
2021/09/29 07:03:49;;;;;;;14.13;5.93;;;13.20;93.70;;;;;;5034968;28;20390;-75
2021/09/29 07:06:16;;;;;;;14.52;6.40;;;13.20;93.70;;;;;;5033118;28;20044;-75
2021/09/29 07:08:42;;;;;;;12.90;6.45;;;13.20;93.70;;;;;;5033576;28;20440;-73
2021/09/29 07:11:07;;;;;;;10.63;5.53;;;13.20;93.90;;;;;;5032123;28;20048;-75
2021/09/29 07:13:33;;;;;;;8.30;4.65;;;13.20;93.50;;;;;;5033734;28;20374;-74
2021/09/29 07:15:59;;;;;;;15.23;6.15;;;13.20;93.50;;;;;;5033634;28;20383;-74
2021/09/29 07:18:30;;;;;;;10.77;4.95;;;13.30;93.60;;;;;;5032763;28;20091;-75
2021/09/29 07:20:56;;;;;;;18.77;5.93;;;13.30;93.60;;;;;;5034067;28;20022;-72
2021/09/29 07:23:22;;;;;;;11.07;3.60;;;13.30;93.60;;;;;;5031750;28;20025;-73
2021/09/29 07:25:48;;;;;;;11.25;4.75;;;13.30;93.10;;;;;;5009501;28;20079;-73
2021/09/29 07:28:13;;;;;;;9.95;4.57;;;13.40;93.00;;;;;;5013239;28;20034;-72
2021/09/29 07:30:41;;;;;;;11.35;4.15;;;13.30;93.00;;;;;;5013438;28;20022;-72
2021/09/29 07:33:08;;;;;;;10.82;4.97;;;13.40;93.40;;;;;;5013114;28;20030;-72
2021/09/29 07:35:35;;;;;;;10.20;3.63;;;13.30;93.70;;;;;;5012555;28;20054;-73
2021/09/29 07:38:01;;;;;;;10.68;4.35;;;13.30;93.20;;;;;;5013677;28;20030;-73
2021/09/29 07:40:28;;;;;;;9.48;4.65;;;13.30;93.70;;;;;;5012625;28;20179;-73
2021/09/29 07:42:55;;;;;;;6.47;3.00;;;13.20;93.50;;;;;;5012835;28;20095;-73
2021/09/29 07:45:22;;;;;;;10.93;5.68;;;13.30;93.50;;;;;;5012154;28;20451;-73
2021/09/29 07:47:48;;;;;;;13.10;4.15;;;13.30;93.80;;;;;;5012845;28;20026;-73
2021/09/29 07:50:16;;;;;;;12.50;4.03;;;13.30;93.80;;;;;;5014781;28;20036;-72
2021/09/29 07:52:43;;;;;;;11.23;4.97;;;13.30;93.80;;;;;;5027104;28;20057;-73
2021/09/29 07:55:09;;;;;;;10.20;4.55;;;13.30;93.80;;;;;;5016494;28;20064;-72
2021/09/29 07:57:34;;;;;;;13.73;5.20;;;13.40;94.00;;;;;;5012534;28;20025;-73
2021/09/29 08:00:00;;;;;;;14.43;5.53;;;13.30;93.70;;;;;;5013099;28;20483;-73
2021/09/29 08:02:26;;;;;;;10.25;4.68;;;13.30;93.80;;;;;;5011955;28;20034;-73
2021/09/29 08:04:53;;;;;;;7.53;4.00;;;13.30;93.80;;;;;;5013178;28;20026;-74
2021/09/29 08:07:18;;;;;;;9.75;4.32;;;13.40;94.00;;;;;;5012968;28;20459;-73
2021/09/29 08:09:44;;;;;;;9.38;4.25;;;13.40;93.70;;;;;;5012033;28;20022;-73
2021/09/29 08:12:10;;;;;;;5.75;2.92;;;13.40;93.80;;;;;;5012705;28;20026;-73
2021/09/29 08:14:39;;;;;;;6.72;3.50;;;13.40;93.50;;;;;;5012993;28;20491;-73
2021/09/29 08:17:06;;;;;;;7.00;3.33;;;13.50;93.40;;;;;;5012909;28;20513;-72
2021/09/29 08:19:33;;;;;;;8.40;4.50;;;13.50;93.20;;;;;;5012931;28;20343;-74
2021/09/29 08:21:58;;;;;;;7.72;3.63;;;13.50;93.20;;;;;;5011815;28;20026;-75
2021/09/29 08:24:35;;;;;;;7.82;4.05;;;13.50;93.30;;;;;;5012546;28;20033;-75
2021/09/29 08:27:08;;;;;;;6.95;3.30;;;13.50;93.50;;;;;;5012788;28;20054;-74
2021/09/29 08:34:46;;;;;;;6.82;4.30;;;13.50;94.00;;;;;;5013163;28;20038;-73
2021/09/29 08:42:21;;;;;;;7.50;4.55;;;13.60;94.10;;;;;;5013261;28;20041;-75
2021/09/29 08:45:00;;;;;;;9.00;5.47;;;13.60;93.90;;;;;;5020704;28;20032;-74
2021/09/29 08:53:45;;;;;;;9.18;5.05;;;13.60;93.70;;;;;;5013219;28;20045;-73
2021/09/29 08:58:16;;;;;;;8.60;5.07;;;13.60;93.80;;;;;;5016116;28;20038;-72
2021/09/29 09:17:32;;;;;;;9.60;5.35;;;13.80;92.90;;;;;;5018591;28;20038;-74
2021/09/29 09:20:27;;;;;;;9.13;6.65;;;13.70;92.80;;;;;;5017077;28;20026;-74
2021/09/29 09:22:57;;;;;;;8.73;4.95;;;13.80;92.70;;;;;;5014100;28;20041;-72
2021/09/29 09:25:38;;;;;;;10.40;5.65;;;13.70;92.70;;;;;;5015918;28;20044;-73
2021/09/29 09:28:05;;;;;;;10.40;5.80;;;13.70;92.60;;;;;;5015619;28;20470;-73
2021/09/29 09:30:34;;;;;;;6.35;5.03;;;13.70;92.30;;;;;;5014708;28;20090;-72
2021/09/29 09:33:01;;;;;;;8.38;5.57;;;13.70;91.70;;;;;;5015732;28;20375;-74
2021/09/29 09:35:47;;;;;;;8.48;4.75;;;13.60;91.90;;;;;;5014084;28;20050;-73
2021/09/29 09:38:19;;;;;;;7.20;4.35;;;13.50;91.40;;;;;;5015995;28;20097;-74
2021/09/29 09:40:45;;;;;;;7.45;4.60;;;13.40;91.80;;;;;;5016133;28;20026;-72
2021/09/29 09:43:12;;;;;;;5.60;3.10;;;13.30;92.20;;;;;;5014847;28;20084;-72
2021/09/29 09:45:48;;;;;;;5.10;3.30;;;13.30;92.20;;;;;;5018417;28;20379;-72
2021/09/29 09:48:23;;;;;;;6.28;4.60;;;13.30;92.20;;;;;;5016690;28;20029;-74
2021/09/29 09:50:53;;;;;;;7.00;5.10;;;13.30;92.20;;;;;;5014814;28;20029;-74
2021/09/29 09:53:19;;;;;;;8.48;5.93;;;13.20;92.50;;;;;;5013532;28;20526;-73
2021/09/29 09:55:45;;;;;;;7.82;5.68;;;13.20;92.60;;;;;;5014939;28;20022;-73
2021/09/29 09:58:10;;;;;;;7.97;5.95;;;13.20;92.60;;;;;;5014956;28;20412;-74
2021/09/29 10:00:37;;;;;;;6.45;5.75;;;13.10;92.50;;;;;;5015184;28;20021;-74
2021/09/29 10:03:03;;;;;;;9.23;7.07;;;13.10;92.90;;;;;;5015059;28;20104;-75
2021/09/29 10:05:30;;;;;;;7.78;4.25;;;13.00;93.00;;;;;;5014706;28;20030;-74
2021/09/29 10:07:58;;;;;;;6.30;4.30;;;13.00;93.30;;;;;;5013655;28;20014;-74
2021/09/29 10:11:10;;;;;;;6.65;4.88;;;13.20;93.20;;;;;;5013326;28;21081;-72
2021/09/29 10:27:11;;;;;;;6.78;4.07;;;12.90;93.10;;;;;;5014308;28;20034;-74
2021/09/29 10:29:46;;;;;;;;;;;13.00;93.20;;;;;;5013043;28;20020;-76
2021/09/29 10:37:57;;;;;;;5.95;4.45;;;12.80;93.50;;;;;;5015315;28;20037;-75
2021/09/29 10:41:22;;;;;;;11.05;6.07;;;12.80;93.70;;;;;;5017024;28;20053;-74
2021/09/29 10:43:25;;;;;;;8.18;4.97;;;12.80;93.70;;;;;;5001327;28;20034;-75
2021/09/29 11:03:32;;;;;;;4.65;2.80;;;12.70;93.90;;;;;;5015102;28;20149;-74
2021/09/29 11:30:37;;;;;;;5.07;1.75;;;12.50;93.30;;;;;;5019465;28;20038;-75
2021/09/29 12:08:53;;;;;;;6.25;2.42;;;12.70;92.50;;;;;;5012630;28;20084;-75
2021/09/29 12:11:25;;;;;;;5.38;1.65;;;12.70;92.50;;;;;;5010843;28;20432;-75
2021/09/29 12:16:35;;;;;;;3.88;1.35;;;12.90;92.40;;;;;;5012721;28;20276;-75
2021/09/29 12:19:16;;;;;;;4.07;1.30;;;13.00;92.20;;;;;;5011500;28;20018;-76
2021/09/29 12:21:48;;;;;;;3.97;1.55;;;13.20;92.00;;;;;;5009602;28;20496;-75
2021/09/29 12:24:30;;;;;;;2.85;1.10;;;13.40;91.80;;;;;;5012601;28;20136;-75
2021/09/29 12:26:59;;;;;;;2.83;1.20;;;13.50;91.60;;;;;;5017365;28;20033;-73
2021/09/29 12:29:34;;;;;;;2.50;1.02;;;13.60;91.70;;;;;;5035826;28;20040;-74
2021/09/29 12:32:36;;;;;;;3.35;1.40;;;13.70;91.60;;;;;;5005584;28;20017;-75
2021/09/29 12:37:51;;;;;;;1.50;0.82;;;13.70;91.80;;;;;;5013801;28;20589;-75
2021/09/29 12:40:17;;;;;;;2.80;1.30;;;13.70;91.60;;;;;;5007437;28;20014;-75
2021/09/29 12:42:43;;;;;;;4.38;1.50;;;13.60;91.20;;;;;;5017181;28;20144;-74
2021/09/29 12:45:09;;;;;;;2.15;1.20;;;13.60;91.00;;;;;;5016462;28;20421;-74
2021/09/29 12:47:38;;;;;;;3.33;1.05;;;13.50;91.20;;;;;;5012179;28;20025;-76
2021/09/29 12:50:16;;;;;;;5.20;1.67;;;13.50;91.20;;;;;;5011634;28;20018;-76
2021/09/29 12:53:19;;;;;;;5.03;1.50;;;13.40;91.20;;;;;;5011025;28;20030;-75
2021/09/29 12:55:37;;;;;;;4.95;1.70;;;13.40;91.30;;;;;;5010524;28;20065;-75
2021/09/29 12:58:02;;;;;;;4.70;1.85;;;13.40;91.40;;;;;;5005831;28;20034;-75
2021/09/29 13:00:28;;;;;;;2.72;0.90;;;13.30;91.90;;;;;;5000239;28;20538;-74
2021/09/29 13:02:53;;;;;;;5.05;1.40;;;13.30;91.10;;;;;;5007892;28;20076;-76
2021/09/29 13:05:20;;;;;;;4.97;1.92;;;13.30;91.10;;;;;;5033368;28;20040;-74
2021/09/29 13:07:46;;;;;;;9.82;2.10;;;13.40;90.80;;;;;;5018570;28;20014;-76
2021/09/29 13:10:12;;;;;;;5.88;1.60;;;13.40;91.00;;;;;;5011528;28;20360;-76
2021/09/29 13:12:37;;;;;;;6.38;1.50;;;13.60;91.00;;;;;;5012358;28;20034;-76
2021/09/29 13:15:03;;;;;;;4.50;1.75;;;13.70;91.10;;;;;;5015937;28;20053;-75
2021/09/29 13:17:29;;;;;;;7.03;1.80;;;13.80;90.70;;;;;;5017468;28;20196;-75
2021/09/29 13:20:01;;;;;;;6.68;1.80;;;14.00;90.80;;;;;;5019236;28;20101;-74
2021/09/29 13:22:28;;;;;;;6.70;2.25;;;14.20;91.00;;;;;;5022878;28;20030;-75
2021/09/29 13:27:37;;;;;;;8.32;2.00;;;14.70;90.20;;;;;;5012103;28;20501;-76
2021/09/29 13:38:13;;;;;;;6.20;1.75;;;16.10;86.70;;;;;;5012236;28;20030;-75
2021/09/29 13:40:41;;;;;;;10.10;2.00;;;16.30;84.80;;;;;;5023036;28;20033;-75
2021/09/29 13:43:07;;;;;;;5.45;1.30;;;16.40;82.50;;;;;;5014822;28;20026;-75
2021/09/29 13:45:33;;;;;;;5.65;1.00;;;16.40;79.30;;;;;;5014520;28;20104;-76
2021/09/29 13:47:59;;;;;;;3.63;0.90;;;16.50;77.10;;;;;;5004266;28;20185;-75
2021/09/29 13:50:25;;;;;;;7.70;1.00;;;16.40;75.60;;;;;;5016937;28;20025;-74
2021/09/29 13:52:50;;;;;;;4.55;0.90;;;16.30;74.40;;;;;;5015860;28;20041;-74
2021/09/29 13:55:20;;;;;;;6.97;1.20;;;16.10;76.70;;;;;;5011305;28;20038;-75
2021/09/29 13:57:57;;;;;;;5.00;0.85;;;16.00;77.10;;;;;;4995434;28;20443;-75
2021/09/29 14:29:58;;;;;;;2.78;0.70;;;17.30;71.70;;;;;;5015296;28;20524;-75
2021/09/29 14:32:42;;;;;;;1.77;0.50;;;17.30;66.20;;;;;;5009994;28;20499;-76
2021/09/29 14:35:08;;;;;;;4.80;1.30;;;17.10;65.10;;;;;;5014296;28;20125;-75
2021/09/29 14:37:34;;;;;;;3.35;1.00;;;17.10;64.90;;;;;;5013394;28;20021;-74
2021/09/29 14:40:00;;;;;;;5.00;1.08;;;17.20;70.60;;;;;;5013027;28;20540;-74
2021/09/29 14:42:26;;;;;;;5.00;1.30;;;17.30;70.60;;;;;;5014477;28;20052;-74
2021/09/29 14:44:51;;;;;;;3.10;0.75;;;17.30;66.00;;;;;;5014286;28;20041;-74
2021/09/29 14:47:17;;;;;;;4.70;1.08;;;17.10;67.60;;;;;;5014287;28;20064;-73
2021/09/29 14:49:44;;;;;;;2.35;0.63;;;16.70;68.40;;;;;;5013268;28;20050;-74
2021/09/29 14:52:11;;;;;;;2.40;0.80;;;16.20;69.50;;;;;;5013306;28;20431;-74
2021/09/29 14:54:37;;;;;;;3.67;0.50;;;15.70;70.80;;;;;;5013296;28;20028;-75
2021/09/29 14:57:09;;;;;;;3.75;0.70;;;15.50;71.90;;;;;;5014790;28;20070;-73
2021/09/29 14:59:36;;;;;;;4.70;0.73;;;15.30;77.00;;;;;;5014457;28;20049;-74
2021/09/29 15:02:02;;;;;;;3.10;0.70;;;15.20;74.10;;;;;;5014885;28;20088;-73
2021/09/29 15:04:28;;;;;;;5.43;1.65;;;15.00;78.40;;;;;;5016237;28;20029;-73
2021/09/29 15:06:53;;;;;;;7.28;1.00;;;14.80;77.60;;;;;;5016833;28;20037;-73
2021/09/29 15:09:19;;;;;;;8.40;1.23;;;14.40;78.40;;;;;;5023435;28;20022;-74
2021/09/29 15:11:44;;;;;;;7.93;1.88;;;14.20;84.10;;;;;;5029689;28;20060;-74
2021/09/29 15:14:14;;;;;;;5.97;1.05;;;14.00;81.30;;;;;;5028477;28;20034;-74
2021/09/29 15:16:53;;;;;;;10.98;1.75;;;13.90;83.00;;;;;;5015955;28;20033;-75
2021/09/29 15:24:35;;;;;;;7.70;1.13;;;13.80;82.80;;;;;;5013436;28;20096;-75
2021/09/29 15:46:04;;;;;;;5.25;0.93;;;13.50;85.40;;;;;;5013396;28;20045;-74
2021/09/29 15:51:23;;;;;;;4.47;0.90;;;12.60;88.20;;;;;;5013178;28;20037;-74
2021/09/29 15:54:09;;;;;;;3.85;1.00;;;12.60;89.50;;;;;;5011836;28;20343;-76
2021/09/29 16:01:37;;;;;;;4.00;1.00;;;12.40;89.10;;;;;;5012603;28;20489;-75
2021/09/29 16:04:23;;;;;;;6.25;1.95;;;12.40;89.40;;;;;;5011400;28;20394;-75
2021/09/29 16:12:18;;;;;;;11.07;4.50;;;12.20;90.00;;;;;;5006248;28;20064;-75
2021/09/29 16:17:23;;;;;;;2.90;1.13;;;12.10;89.80;;;;;;5019185;28;20102;-75
2021/09/29 16:36:09;;;;;;;8.30;2.58;;;11.80;90.20;;;;;;5020267;28;20033;-75
2021/09/29 16:38:35;;;;;;;5.50;1.40;;;11.80;90.10;;;;;;5012376;28;20374;-75
2021/09/29 16:41:00;;;;;;;5.40;1.33;;;11.80;90.20;;;;;;5021452;28;20033;-76
2021/09/29 16:43:28;;;;;;;2.67;0.80;;;11.80;90.10;;;;;;5013430;28;20390;-74
2021/09/29 16:45:55;;;;;;;3.13;0.90;;;11.80;90.20;;;;;;5011488;28;20105;-75